Time;durP1;ratioP1;P1;durP2;ratioP2;P2;SDS_P1;SDS_P2;PMS_P1;PMS_P2;Temp;Humidity;BMP_temperature;BMP_pressure;BME280_temperature;BME280_humidity;BME280_pressure;Samples;Min_cycle;Max_cycle;Signal;HPM_P1;HPM_P2
2023/01/01 00:01:56;;;;;;;27.77;19.70;;;;;;;13.61;63.82;100744.75;4198157;28;20040;-72
2023/01/01 00:04:01;;;;;;;56.55;40.38;;;;;;;13.60;63.89;100739.50;4197530;28;20123;-71
2023/01/01 00:06:07;;;;;;;19.77;14.13;;;;;;;13.60;63.67;100747.34;4198119;28;20037;-71
2023/01/01 00:08:10;;;;;;;43.90;26.85;;;;;;;13.56;64.02;100741.22;4198269;28;20036;-72
2023/01/01 00:10:27;;;;;;;20.42;15.20;;;;;;;13.56;63.96;100743.84;4198071;28;20127;-72
2023/01/01 00:12:31;;;;;;;67.68;54.50;;;;;;;13.50;64.28;100746.41;4198116;28;20048;-71
2023/01/01 00:14:34;;;;;;;28.48;23.65;;;;;;;13.53;64.37;100751.66;4179376;28;20066;-72
2023/01/01 00:16:37;;;;;;;21.02;16.65;;;;;;;13.57;63.35;100752.56;4197894;28;20074;-72
2023/01/01 00:18:40;;;;;;;18.35;13.27;;;;;;;13.61;64.42;100751.72;4196620;28;20041;-71
2023/01/01 00:20:45;;;;;;;14.95;11.02;;;;;;;13.67;64.07;100758.69;4197843;28;20046;-72
2023/01/01 00:22:48;;;;;;;11.85;8.50;;;;;;;13.64;63.84;100758.69;4197917;28;20124;-71
2023/01/01 00:24:58;;;;;;;11.75;8.02;;;;;;;13.61;64.20;100765.66;4197121;28;20076;-71
2023/01/01 00:27:01;;;;;;;11.85;7.53;;;;;;;13.69;63.18;100762.22;4197778;28;20039;-72
2023/01/01 00:29:05;;;;;;;11.00;6.75;;;;;;;13.73;63.30;100763.97;4197677;28;20045;-72
2023/01/01 00:31:08;;;;;;;10.02;6.60;;;;;;;13.72;63.07;100764.84;4179947;28;20454;-72
2023/01/01 00:33:10;;;;;;;10.68;7.55;;;;;;;13.76;63.54;100762.25;4196345;28;20502;-72
2023/01/01 00:35:13;;;;;;;13.55;8.32;;;;;;;13.75;63.07;100762.25;4195961;28;20580;-72
2023/01/01 00:37:17;;;;;;;15.18;9.00;;;;;;;13.77;63.73;100761.41;4197565;28;20509;-72
2023/01/01 00:39:20;;;;;;;13.85;8.70;;;;;;;13.72;63.05;100762.22;4196441;28;20481;-71
2023/01/01 00:41:23;;;;;;;9.93;6.55;;;;;;;13.60;63.44;100763.03;4179818;28;20052;-71
2023/01/01 00:43:26;;;;;;;15.95;10.93;;;;;;;13.70;63.52;100763.97;4179260;28;20045;-71
2023/01/01 00:45:29;;;;;;;13.52;8.35;;;;;;;13.69;63.83;100762.22;4212385;28;20512;-71
2023/01/01 00:47:32;;;;;;;17.33;10.48;;;;;;;13.77;63.25;100755.31;4197524;28;20037;-71
2023/01/01 00:49:35;;;;;;;18.23;12.45;;;;;;;13.77;63.44;100739.63;4196092;28;20465;-71
2023/01/01 00:51:38;;;;;;;18.10;11.85;;;;;;;13.73;63.55;100746.56;4197397;28;20043;-71
2023/01/01 00:53:42;;;;;;;36.28;24.55;;;;;;;13.68;63.67;100745.66;4196597;28;20409;-70
2023/01/01 00:55:45;;;;;;;15.98;10.35;;;;;;;13.70;64.11;100745.69;4196223;28;20047;-71
2023/01/01 00:57:47;;;;;;;18.70;14.43;;;;;;;13.70;63.96;100749.16;4197332;28;20032;-71
2023/01/01 00:59:50;;;;;;;15.18;10.00;;;;;;;13.72;63.80;100741.31;4196130;28;20456;-71
2023/01/01 01:01:53;;;;;;;13.70;9.15;;;;;;;13.70;63.78;100745.69;4197403;28;20069;-71
2023/01/01 01:03:56;;;;;;;14.48;9.48;;;;;;;13.66;63.68;100746.53;4196512;28;20302;-72
2023/01/01 01:06:08;;;;;;;12.00;7.68;;;;;;;13.57;64.23;100750.81;4197323;28;20115;-72
2023/01/01 01:08:11;;;;;;;9.43;5.78;;;;;;;13.58;64.45;100738.63;4196098;28;20041;-72
2023/01/01 01:10:15;;;;;;;11.10;7.15;;;;;;;13.65;63.75;100739.53;4195871;28;20110;-71
2023/01/01 01:12:19;;;;;;;9.55;6.88;;;;;;;13.70;63.56;100740.47;4195972;28;20040;-72
2023/01/01 01:14:21;;;;;;;10.75;4.88;;;;;;;13.66;63.77;100742.16;4196420;28;20040;-71
2023/01/01 01:16:27;;;;;;;14.90;8.05;;;;;;;13.80;63.50;100737.03;4195860;28;20517;-72
2023/01/01 01:18:30;;;;;;;10.32;6.22;;;;;;;13.77;64.03;100744.84;4197110;28;20079;-72
2023/01/01 01:20:32;;;;;;;10.02;6.50;;;;;;;13.71;63.89;100740.47;4195917;28;20491;-72
2023/01/01 01:22:35;;;;;;;10.50;7.65;;;;;;;13.69;63.44;100734.34;4197131;28;20045;-72
2023/01/01 01:24:38;;;;;;;10.30;6.43;;;;;;;13.72;63.57;100743.94;4195108;28;20125;-71
2023/01/01 01:26:42;;;;;;;7.35;4.82;;;;;;;13.65;63.96;100736.94;4197091;28;20494;-72
2023/01/01 01:28:45;;;;;;;8.38;4.72;;;;;;;13.64;63.50;100738.69;4197114;28;20037;-73
2023/01/01 01:30:51;;;;;;;10.85;5.50;;;;;;;13.65;64.10;100744.75;4197034;28;20127;-72
2023/01/01 01:32:54;;;;;;;9.55;4.80;;;;;;;13.63;64.25;100744.75;4196886;28;20045;-72
2023/01/01 01:34:57;;;;;;;7.90;4.78;;;;;;;13.67;63.91;100754.38;4196182;28;20509;-72
2023/01/01 01:37:00;;;;;;;6.93;4.20;;;;;;;13.58;64.09;100762.13;4196917;28;20047;-72
2023/01/01 01:39:03;;;;;;;7.78;4.20;;;;;;;13.59;64.34;100762.16;4196856;28;20036;-72
2023/01/01 01:41:06;;;;;;;7.20;4.35;;;;;;;13.73;63.60;100764.84;4196855;28;20049;-72
2023/01/01 01:43:21;;;;;;;6.50;4.22;;;;;;;13.69;63.94;100762.22;4196658;28;20043;-72
2023/01/01 01:45:24;;;;;;;;;;;;;;;13.67;63.67;100771.75;4197303;28;20051;-71
2023/01/01 01:47:39;;;;;;;7.22;4.20;;;;;;;13.69;63.35;100770.06;4196802;28;19970;-71
2023/01/01 01:49:44;;;;;;;7.38;4.68;;;;;;;13.73;63.88;100770.06;4195611;28;20162;-71
2023/01/01 01:51:48;;;;;;;6.70;3.72;;;;;;;13.68;63.38;100770.91;4196850;28;20042;-71
2023/01/01 01:53:59;;;;;;;12.38;5.38;;;;;;;13.71;63.85;100765.69;4196040;28;20044;-71
2023/01/01 01:56:07;;;;;;;8.82;5.13;;;;;;;13.78;63.40;100759.66;4196728;28;20517;-72
2023/01/01 01:58:14;;;;;;;8.45;5.35;;;;;;;13.69;63.38;100747.41;4199644;28;20478;-71
2023/01/01 02:00:20;;;;;;;9.50;5.65;;;;;;;13.70;63.51;100754.38;4200046;28;20111;-71
2023/01/01 02:02:28;;;;;;;9.20;5.68;;;;;;;13.71;63.55;100753.53;4198704;28;20421;-72
2023/01/01 02:04:31;;;;;;;8.93;5.85;;;;;;;13.67;63.58;100753.47;4199157;28;20381;-72
2023/01/01 02:06:38;;;;;;;10.90;6.43;;;;;;;13.72;63.84;100752.63;4199584;28;20036;-71
2023/01/01 02:08:41;;;;;;;15.02;7.38;;;;;;;13.65;63.62;100758.69;4199992;28;20067;-71
2023/01/01 02:10:44;;;;;;;11.02;7.55;;;;;;;13.74;63.56;100750.94;4199749;28;20041;-70
2023/01/01 02:12:47;;;;;;;15.15;8.02;;;;;;;13.77;62.97;100755.31;4199832;28;20040;-71
2023/01/01 02:14:52;;;;;;;13.40;7.80;;;;;;;13.83;63.17;100755.34;4199000;28;20056;-71
2023/01/01 02:16:58;;;;;;;15.90;8.52;;;;;;;13.72;63.85;100759.63;4199778;28;20047;-72
2023/01/01 02:19:12;;;;;;;15.50;8.38;;;;;;;13.71;63.58;100755.25;4199810;28;20486;-71
2023/01/01 02:21:20;;;;;;;14.23;8.23;;;;;;;13.75;63.37;100746.56;4199754;28;20036;-71
2023/01/01 02:23:52;;;;;;;15.40;9.20;;;;;;;13.79;63.31;100748.34;4199148;28;20033;-71
2023/01/01 02:26:12;;;;;;;13.20;8.52;;;;;;;13.67;63.84;100754.38;4199854;28;20547;-71
2023/01/01 02:28:50;;;;;;;12.90;8.02;;;;;;;13.69;63.14;100746.53;4199981;28;20067;-71
2023/01/01 02:30:55;;;;;;;9.82;7.00;;;;;;;13.64;64.24;100753.47;4199495;28;20490;-71
2023/01/01 02:33:02;;;;;;;18.10;8.07;;;;;;;13.64;63.92;100748.22;4199469;28;20036;-71
2023/01/01 02:37:32;;;;;;;11.70;8.10;;;;;;;13.69;63.58;100751.75;4198221;28;20040;-71
2023/01/01 02:39:39;;;;;;;12.27;7.90;;;;;;;13.63;63.63;100738.66;4198237;28;20043;-71
2023/01/01 02:41:45;;;;;;;13.75;8.60;;;;;;;13.75;62.75;100747.44;4181620;28;20056;-71
2023/01/01 02:43:49;;;;;;;12.77;8.73;;;;;;;13.68;63.80;100752.63;4198646;28;20049;-72
2023/01/01 02:45:53;;;;;;;11.65;8.00;;;;;;;13.63;63.73;100759.56;4199338;28;20509;-71
2023/01/01 02:47:56;;;;;;;10.70;7.68;;;;;;;13.52;64.01;100754.25;4199325;28;20087;-71
2023/01/01 02:50:08;;;;;;;11.38;7.25;;;;;;;13.57;63.78;100763.88;4181492;28;20033;-71
2023/01/01 02:52:21;;;;;;;12.82;8.25;;;;;;;13.57;64.26;100773.47;4199486;28;20159;-72
2023/01/01 02:54:34;;;;;;;14.10;8.13;;;;;;;13.53;64.33;100784.75;4197271;28;20115;-72
2023/01/01 02:56:45;;;;;;;12.30;7.47;;;;;;;13.47;64.41;100787.31;4197922;28;20410;-71
2023/01/01 03:01:23;;;;;;;10.52;6.88;;;;;;;13.42;64.39;100784.69;4181298;28;20135;-72
2023/01/01 03:03:34;;;;;;;12.57;7.30;;;;;;;13.38;64.81;100782.91;4198347;28;20041;-72
2023/01/01 03:08:07;;;;;;;10.52;6.75;;;;;;;13.34;64.48;100787.19;4198719;28;20128;-72
2023/01/01 03:10:15;;;;;;;14.80;8.00;;;;;;;13.30;64.48;100787.13;4198610;28;20131;-72
2023/01/01 03:12:24;;;;;;;11.20;6.95;;;;;;;13.28;65.00;100790.59;4199041;28;20028;-72
2023/01/01 03:14:38;;;;;;;14.40;7.63;;;;;;;13.27;64.82;100787.97;4196847;28;20530;-72
2023/01/01 03:16:46;;;;;;;14.20;7.47;;;;;;;13.27;64.90;100793.19;4198911;28;20132;-72
2023/01/01 03:19:10;;;;;;;13.60;8.32;;;;;;;13.26;64.68;100789.72;4198799;28;20074;-72
2023/01/01 03:21:17;;;;;;;11.45;7.22;;;;;;;13.22;64.61;100781.88;4198811;28;20132;-72
2023/01/01 03:23:25;;;;;;;11.60;8.13;;;;;;;13.26;64.45;100787.13;4198039;28;20045;-72
2023/01/01 03:25:33;;;;;;;11.20;7.47;;;;;;;13.17;64.94;100794.88;4198702;28;20539;-72
2023/01/01 03:27:41;;;;;;;15.38;8.50;;;;;;;13.21;64.85;100796.63;4180928;28;20045;-72
2023/01/01 03:29:47;;;;;;;12.80;7.90;;;;;;;13.19;65.16;100800.13;4197375;28;20040;-72
2023/01/01 03:31:54;;;;;;;11.57;7.88;;;;;;;13.16;65.00;100795.72;4197497;28;20041;-72
2023/01/01 03:34:03;;;;;;;14.38;8.68;;;;;;;13.21;64.92;100795.78;4196516;28;20056;-72
2023/01/01 03:36:10;;;;;;;11.60;7.50;;;;;;;13.14;65.00;100791.34;4197260;28;20044;-72
2023/01/01 03:38:18;;;;;;;12.82;8.07;;;;;;;13.12;65.22;100801.78;4198744;28;20490;-72
2023/01/01 03:40:23;;;;;;;13.90;8.25;;;;;;;13.09;65.32;100788.72;4198408;28;20074;-72
2023/01/01 03:42:32;;;;;;;11.65;7.97;;;;;;;13.14;64.96;100805.31;4197202;28;20080;-72
2023/01/01 03:44:44;;;;;;;12.02;7.75;;;;;;;13.10;65.62;100803.50;4197561;28;20041;-72
2023/01/01 03:46:48;;;;;;;15.32;8.75;;;;;;;13.09;65.34;100799.16;4198434;28;20548;-72
2023/01/01 03:48:59;;;;;;;14.68;8.77;;;;;;;13.07;65.24;100795.66;4198341;28;20044;-72
2023/01/01 03:51:15;;;;;;;13.98;7.40;;;;;;;13.04;65.44;100796.50;4198575;28;20544;-72
2023/01/01 03:53:29;;;;;;;13.68;9.13;;;;;;;13.04;65.64;100806.03;4196364;28;20052;-71
2023/01/01 03:55:35;;;;;;;16.55;9.13;;;;;;;13.13;65.79;100810.47;4197043;28;20591;-72
2023/01/01 03:57:46;;;;;;;14.10;7.88;;;;;;;13.14;64.93;100796.56;4197067;28;20055;-72
2023/01/01 03:59:57;;;;;;;10.50;6.90;;;;;;;13.12;65.10;100803.53;4196918;28;20040;-72
2023/01/01 04:02:06;;;;;;;11.02;8.07;;;;;;;13.11;65.39;100805.25;4196942;28;20049;-72
2023/01/01 04:04:11;;;;;;;14.48;8.43;;;;;;;13.07;65.63;100806.09;4196085;28;20044;-73
2023/01/01 04:06:14;;;;;;;14.52;7.80;;;;;;;13.08;65.39;100805.22;4196776;28;20040;-72
2023/01/01 04:08:18;;;;;;;14.30;7.82;;;;;;;13.10;65.48;100798.28;4197002;28;20040;-72
2023/01/01 04:10:23;;;;;;;10.38;6.38;;;;;;;13.11;64.94;100810.47;4196728;28;20044;-72
2023/01/01 04:12:26;;;;;;;11.82;8.52;;;;;;;13.10;65.17;100796.53;4198000;28;20047;-72
2023/01/01 04:14:30;;;;;;;16.45;8.40;;;;;;;13.06;65.14;100806.94;4197046;28;20044;-72
2023/01/01 04:16:32;;;;;;;13.05;6.82;;;;;;;13.10;65.24;100793.06;4197921;28;20049;-72
2023/01/01 04:18:37;;;;;;;10.13;6.53;;;;;;;13.01;65.38;100804.31;4196802;28;20489;-72
2023/01/01 04:20:39;;;;;;;11.25;6.70;;;;;;;13.09;65.15;100800.00;4196733;28;20444;-72
2023/01/01 04:22:43;;;;;;;10.68;6.55;;;;;;;13.06;65.23;100799.97;4197764;28;20460;-72
2023/01/01 04:24:46;;;;;;;11.80;7.60;;;;;;;13.00;65.60;100804.28;4196998;28;20055;-72
2023/01/01 04:26:49;;;;;;;11.50;7.28;;;;;;;12.98;65.18;100793.84;4197791;28;20406;-72
2023/01/01 04:28:51;;;;;;;13.52;7.70;;;;;;;13.05;64.92;100799.97;4179944;28;20616;-72
2023/01/01 04:30:54;;;;;;;9.02;5.88;;;;;;;13.01;65.59;100803.41;4197709;28;20059;-72
2023/01/01 04:32:56;;;;;;;10.27;7.00;;;;;;;12.96;65.52;100795.53;4179826;28;20072;-72
2023/01/01 04:35:01;;;;;;;11.07;7.20;;;;;;;12.96;65.58;100805.13;4196738;28;20083;-72
2023/01/01 04:37:04;;;;;;;9.55;6.38;;;;;;;12.89;65.35;100805.06;4196254;28;20051;-72
2023/01/01 04:39:14;;;;;;;10.77;5.43;;;;;;;12.87;65.72;100798.06;4197744;28;20045;-72
2023/01/01 04:41:17;;;;;;;10.13;5.85;;;;;;;12.85;65.83;100811.09;4197438;28;20441;-72
2023/01/01 04:43:20;;;;;;;12.82;7.20;;;;;;;12.93;65.21;100812.03;4195406;28;20040;-72
2023/01/01 04:45:23;;;;;;;16.60;7.40;;;;;;;12.99;65.20;100816.44;4196166;28;20043;-72
2023/01/01 04:47:26;;;;;;;12.00;6.53;;;;;;;13.01;64.82;100814.75;4196333;28;20071;-72
2023/01/01 04:49:29;;;;;;;12.02;6.63;;;;;;;12.90;65.75;100812.00;4197365;28;20052;-72
2023/01/01 04:51:33;;;;;;;10.02;5.68;;;;;;;12.84;65.72;100822.38;4196196;28;20036;-71
2023/01/01 04:53:37;;;;;;;9.77;6.10;;;;;;;12.89;65.30;100820.72;4196575;28;20037;-71
2023/01/01 04:55:40;;;;;;;11.23;5.65;;;;;;;12.82;65.69;100821.50;4197358;28;20090;-71
2023/01/01 04:57:43;;;;;;;8.50;4.78;;;;;;;12.79;65.63;100825.81;4197496;28;20094;-72
2023/01/01 04:59:46;;;;;;;8.60;5.55;;;;;;;12.84;65.73;100837.19;4197201;28;20090;-72
2023/01/01 05:01:49;;;;;;;10.18;5.05;;;;;;;12.77;65.60;100830.13;4197314;28;20407;-71
2023/01/01 05:03:52;;;;;;;10.00;5.68;;;;;;;12.81;65.48;100824.09;4196512;28;20032;-71
2023/01/01 05:06:02;;;;;;;9.85;5.50;;;;;;;12.77;65.66;100825.78;4197204;28;20131;-71
2023/01/01 05:08:06;;;;;;;11.00;6.45;;;;;;;12.81;65.62;100832.78;4197286;28;20494;-72
2023/01/01 05:10:09;;;;;;;11.60;6.65;;;;;;;12.78;65.55;100831.91;4197128;28;20049;-72
2023/01/01 05:12:12;;;;;;;9.88;6.00;;;;;;;12.80;65.45;100836.25;4179296;28;20049;-71
2023/01/01 05:14:16;;;;;;;12.30;5.80;;;;;;;12.77;65.53;100856.22;4196332;28;20077;-71
2023/01/01 05:16:21;;;;;;;7.32;4.93;;;;;;;12.77;65.42;100851.00;4195976;28;20036;-71
2023/01/01 05:18:25;;;;;;;10.38;5.32;;;;;;;12.78;65.56;100843.19;4197094;28;20582;-71
2023/01/01 05:20:29;;;;;;;8.68;5.40;;;;;;;12.81;65.32;100851.06;4197026;28;20588;-71
2023/01/01 05:22:32;;;;;;;8.82;4.85;;;;;;;12.81;65.17;100848.44;4195694;28;20044;-72
2023/01/01 05:24:36;;;;;;;11.65;6.30;;;;;;;12.78;64.84;100845.81;4196248;28;20463;-72
2023/01/01 05:26:42;;;;;;;8.93;5.93;;;;;;;12.80;65.16;100840.59;4197062;28;20565;-72
2023/01/01 05:28:46;;;;;;;10.52;5.95;;;;;;;12.76;65.07;100847.50;4197024;28;20445;-72
2023/01/01 05:30:49;;;;;;;10.50;5.75;;;;;;;12.77;65.06;100856.22;4197011;28;20056;-71
2023/01/01 05:32:52;;;;;;;10.38;5.97;;;;;;;12.71;65.40;100852.69;4196470;28;20518;-72
2023/01/01 05:34:55;;;;;;;10.50;5.25;;;;;;;12.70;65.82;100857.88;4196241;28;20047;-72
2023/01/01 05:36:57;;;;;;;11.07;5.68;;;;;;;12.69;65.91;100867.44;4195725;28;20592;-72
2023/01/01 05:39:01;;;;;;;8.55;4.82;;;;;;;12.71;65.61;100859.63;4197347;28;20037;-72
2023/01/01 05:41:07;;;;;;;10.25;5.78;;;;;;;12.69;65.98;100862.22;4196825;28;20068;-72
2023/01/01 05:43:11;;;;;;;9.15;5.10;;;;;;;12.64;65.96;100855.19;4195478;28;20052;-72
2023/01/01 05:45:14;;;;;;;10.82;5.45;;;;;;;12.64;66.20;100866.50;4195408;28;20036;-72
2023/01/01 05:47:17;;;;;;;9.52;5.25;;;;;;;12.68;65.18;100870.03;4195622;28;20040;-72
2023/01/01 05:49:21;;;;;;;9.27;5.85;;;;;;;12.63;65.46;100863.88;4197109;28;20044;-72
2023/01/01 05:51:25;;;;;;;10.93;5.45;;;;;;;12.63;65.25;100872.59;4196929;28;20115;-71
2023/01/01 05:53:29;;;;;;;13.73;5.80;;;;;;;12.61;65.21;100876.91;4196256;28;20044;-72
2023/01/01 05:55:32;;;;;;;8.73;4.97;;;;;;;12.57;65.46;100876.00;4196739;28;20057;-72
2023/01/01 05:57:36;;;;;;;9.77;5.10;;;;;;;12.49;65.48;100869.78;4196761;28;20113;-72
2023/01/01 05:59:39;;;;;;;9.57;5.75;;;;;;;12.51;65.56;100870.72;4196793;28;20040;-72
2023/01/01 06:01:42;;;;;;;8.70;4.82;;;;;;;12.50;65.70;100879.38;4196683;28;20448;-72
2023/01/01 06:03:49;;;;;;;7.47;5.00;;;;;;;12.44;65.68;100884.53;4196115;28;20045;-72
2023/01/01 06:05:51;;;;;;;11.05;4.70;;;;;;;12.47;65.31;100874.13;4196721;28;20044;-72
2023/01/01 06:07:54;;;;;;;7.50;4.28;;;;;;;12.49;65.28;100882.84;4196747;28;20040;-72
2023/01/01 06:09:57;;;;;;;9.48;5.22;;;;;;;12.44;65.49;100881.91;4196730;28;20062;-72
2023/01/01 06:12:00;;;;;;;9.57;4.63;;;;;;;12.42;65.54;100893.16;4196494;28;20125;-72
2023/01/01 06:14:04;;;;;;;6.88;4.10;;;;;;;12.44;65.30;100889.75;4194631;28;20044;-72
2023/01/01 06:16:07;;;;;;;10.88;4.68;;;;;;;12.47;65.38;100892.38;4178787;28;20057;-72
2023/01/01 06:18:11;;;;;;;8.60;4.68;;;;;;;12.47;64.97;100889.78;4196639;28;20043;-72
2023/01/01 06:20:13;;;;;;;7.22;4.45;;;;;;;12.49;64.94;100893.25;4195348;28;20036;-72
2023/01/01 06:22:16;;;;;;;10.77;4.32;;;;;;;12.50;64.84;100895.03;4196515;28;20124;-72
2023/01/01 06:24:19;;;;;;;7.53;3.60;;;;;;;12.53;64.59;100896.81;4195807;28;20040;-72
2023/01/01 06:26:24;;;;;;;9.02;4.18;;;;;;;12.55;64.40;100889.88;4196493;28;20041;-72
2023/01/01 06:28:30;;;;;;;8.43;4.18;;;;;;;12.52;64.68;100901.13;4195409;28;20047;-72
2023/01/01 06:30:34;;;;;;;7.57;4.00;;;;;;;12.50;64.48;100907.16;4196585;28;20037;-72
2023/01/01 06:32:37;;;;;;;8.73;3.65;;;;;;;12.47;64.72;100905.41;4196563;28;20415;-72
2023/01/01 06:34:40;;;;;;;7.75;3.35;;;;;;;12.38;64.66;100913.09;4195730;28;20123;-72
2023/01/01 06:36:43;;;;;;;10.07;3.78;;;;;;;12.40;64.68;100920.09;4196470;28;20411;-72
2023/01/01 06:38:47;;;;;;;11.45;3.88;;;;;;;12.43;64.09;100919.25;4178666;28;20049;-71
2023/01/01 06:40:57;;;;;;;8.60;4.13;;;;;;;12.48;63.98;100920.19;4195097;28;20540;-71
2023/01/01 06:43:00;;;;;;;7.05;3.90;;;;;;;12.54;63.99;100911.56;4196513;28;20044;-71
2023/01/01 06:45:03;;;;;;;7.35;3.55;;;;;;;12.51;63.99;100909.81;4197907;28;20045;-71
2023/01/01 06:47:07;;;;;;;6.63;4.28;;;;;;;12.65;63.40;100896.09;4199386;28;20406;-72
2023/01/01 06:49:11;;;;;;;8.35;3.38;;;;;;;12.68;63.05;100899.59;4198059;28;20049;-72
2023/01/01 06:51:17;;;;;;;8.32;3.63;;;;;;;12.63;63.15;100897.78;4198185;28;20119;-71
2023/01/01 06:53:23;;;;;;;10.32;3.38;;;;;;;12.63;63.15;100916.03;4197383;28;20050;-71
2023/01/01 06:55:26;;;;;;;7.38;3.25;;;;;;;12.65;63.35;100917.81;4199207;28;20052;-71
2023/01/01 06:57:29;;;;;;;8.00;3.45;;;;;;;12.67;62.79;100923.91;4199277;28;20040;-71
2023/01/01 06:59:32;;;;;;;7.88;3.35;;;;;;;12.68;62.75;100936.13;4199300;28;20047;-71
2023/01/01 07:01:38;;;;;;;12.50;3.42;;;;;;;12.71;62.89;100930.06;4199078;28;20040;-71
2023/01/01 07:03:51;;;;;;;5.80;3.08;;;;;;;12.72;62.66;100944.88;4198259;28;20044;-71
2023/01/01 07:05:53;;;;;;;7.75;3.67;;;;;;;12.74;62.36;100951.84;4198821;28;20044;-71
2023/01/01 07:07:56;;;;;;;7.07;2.92;;;;;;;12.74;62.29;100941.41;4199049;28;20144;-71
2023/01/01 07:09:59;;;;;;;7.15;3.53;;;;;;;12.76;62.63;100951.84;4198915;28;20043;-71
2023/01/01 07:12:02;;;;;;;8.43;3.38;;;;;;;12.81;62.32;100944.13;4198910;28;20387;-71
2023/01/01 07:14:05;;;;;;;7.22;3.05;;;;;;;12.78;61.83;100951.91;4196895;28;20473;-71
2023/01/01 07:16:08;;;;;;;9.20;3.30;;;;;;;12.85;61.66;100952.00;4198898;28;20040;-71
2023/01/01 07:18:15;;;;;;;4.82;2.85;;;;;;;12.85;61.38;100961.53;4198931;28;20040;-71
2023/01/01 07:20:19;;;;;;;8.73;2.92;;;;;;;12.99;61.64;100961.72;4198926;28;20044;-72
2023/01/01 07:22:22;;;;;;;7.60;3.10;;;;;;;12.99;61.36;100951.28;4199144;28;20079;-72
2023/01/01 07:24:25;;;;;;;8.02;3.25;;;;;;;12.93;61.51;100955.56;4197963;28;20049;-72
2023/01/01 07:26:29;;;;;;;8.07;2.47;;;;;;;12.93;61.11;100963.38;4198779;28;20063;-71
2023/01/01 07:28:32;;;;;;;7.82;3.38;;;;;;;12.99;61.16;100969.56;4197519;28;20033;-72
2023/01/01 07:30:34;;;;;;;8.70;3.65;;;;;;;12.98;61.26;100967.78;4197541;28;20441;-73
2023/01/01 07:32:37;;;;;;;5.38;2.47;;;;;;;12.93;61.50;100979.06;4198671;28;20102;-72
2023/01/01 07:34:40;;;;;;;8.85;3.00;;;;;;;12.87;62.15;100972.91;4196647;28;20044;-71
2023/01/01 07:36:51;;;;;;;6.47;2.78;;;;;;;12.83;61.95;100987.63;4197685;28;20076;-72
2023/01/01 07:38:54;;;;;;;9.65;3.50;;;;;;;12.79;61.75;100980.63;4198689;28;20514;-71
2023/01/01 07:40:57;;;;;;;6.07;2.65;;;;;;;12.81;61.87;100994.56;4197185;28;20406;-71
2023/01/01 07:43:00;;;;;;;6.18;2.70;;;;;;;12.82;62.14;100995.41;4180803;28;20283;-71
2023/01/01 07:45:03;;;;;;;5.97;2.90;;;;;;;12.88;61.66;100996.41;4197602;28;20522;-71
2023/01/01 07:47:13;;;;;;;8.23;2.65;;;;;;;12.85;62.01;100991.13;4198431;28;20098;-71
2023/01/01 07:49:16;;;;;;;5.30;2.88;;;;;;;12.78;62.43;101004.09;4198503;28;20059;-71
2023/01/01 07:51:19;;;;;;;5.05;2.72;;;;;;;12.77;62.13;101010.16;4198375;28;20036;-71
2023/01/01 07:53:23;;;;;;;6.32;2.85;;;;;;;12.83;61.93;101008.50;4197540;28;20044;-72
2023/01/01 07:55:27;;;;;;;5.00;2.53;;;;;;;12.76;61.93;101017.09;4196798;28;20070;-71
2023/01/01 07:57:29;;;;;;;8.80;2.85;;;;;;;12.77;61.44;101018.84;4196970;28;20047;-72
2023/01/01 07:59:33;;;;;;;10.13;3.85;;;;;;;12.85;61.40;101022.44;4196895;28;20545;-71
2023/01/01 08:01:36;;;;;;;7.30;2.78;;;;;;;12.93;61.44;101018.19;4198094;28;20560;-71
2023/01/01 08:03:40;;;;;;;4.88;2.63;;;;;;;12.92;61.31;101024.28;4179489;28;20052;-71
2023/01/01 08:05:43;;;;;;;6.20;2.20;;;;;;;12.96;61.00;101024.34;4198043;28;20048;-71
2023/01/01 08:07:47;;;;;;;6.45;2.70;;;;;;;12.98;60.78;101028.72;4198069;28;20040;-72
2023/01/01 08:09:51;;;;;;;6.47;2.25;;;;;;;13.02;60.75;101029.63;4196920;28;20139;-71
2023/01/01 08:11:57;;;;;;;7.00;2.67;;;;;;;13.05;60.86;101032.28;4197973;28;20044;-72
2023/01/01 08:14:00;;;;;;;4.50;2.67;;;;;;;13.08;61.00;101019.25;4197224;28;20044;-71
2023/01/01 08:16:03;;;;;;;7.70;2.72;;;;;;;13.08;60.79;101024.47;4198206;28;20052;-71
2023/01/01 08:18:06;;;;;;;5.78;2.30;;;;;;;13.05;61.08;101017.50;4196759;28;20071;-71
2023/01/01 08:20:10;;;;;;;9.45;3.50;;;;;;;13.04;60.53;101028.81;4196562;28;20052;-71
2023/01/01 08:22:13;;;;;;;11.05;3.17;;;;;;;13.13;60.42;101019.31;4197737;28;20072;-71
2023/01/01 08:24:15;;;;;;;4.68;2.28;;;;;;;13.18;60.58;101022.88;4195713;28;20414;-72
2023/01/01 08:26:27;;;;;;;8.95;2.90;;;;;;;13.25;60.34;101009.03;4197762;28;20040;-71
2023/01/01 08:28:31;;;;;;;8.40;2.92;;;;;;;13.21;60.42;101010.72;4197713;28;20071;-72
2023/01/01 08:30:33;;;;;;;3.53;2.05;;;;;;;13.25;60.61;101009.03;4197651;28;20464;-71
2023/01/01 08:32:36;;;;;;;12.88;3.10;;;;;;;13.19;60.93;101004.63;4197683;28;20032;-71
2023/01/01 08:34:39;;;;;;;6.40;2.50;;;;;;;13.23;60.99;101014.25;4197057;28;20051;-71
2023/01/01 08:36:43;;;;;;;5.72;2.20;;;;;;;13.26;60.64;101016.03;4196360;28;20406;-72
2023/01/01 08:38:46;;;;;;;5.28;2.33;;;;;;;13.33;60.54;101014.34;4196452;28;20044;-72
2023/01/01 08:40:49;;;;;;;4.78;2.45;;;;;;;13.33;60.47;101016.94;4197486;28;20181;-72
2023/01/01 08:42:53;;;;;;;6.03;2.88;;;;;;;13.30;60.59;101017.78;4197425;28;20040;-71
2023/01/01 08:44:56;;;;;;;5.15;2.42;;;;;;;13.32;60.83;101017.84;4197022;28;20111;-72
2023/01/01 08:46:59;;;;;;;7.50;2.58;;;;;;;13.32;60.27;101017.84;4197496;28;20123;-72
2023/01/01 08:49:02;;;;;;;8.80;2.92;;;;;;;13.36;60.77;101022.25;4197350;28;20052;-71
2023/01/01 08:51:05;;;;;;;9.18;2.90;;;;;;;13.37;60.15;101021.41;4197380;28;20097;-73
2023/01/01 08:53:08;;;;;;;8.50;4.07;;;;;;;13.43;60.05;101034.50;4197094;28;20070;-72
2023/01/01 08:55:11;;;;;;;7.53;2.55;;;;;;;13.54;59.36;101027.69;4195629;28;20131;-72
2023/01/01 08:57:14;;;;;;;7.35;2.78;;;;;;;13.64;60.04;101039.13;4196083;28;20048;-72
2023/01/01 08:59:18;;;;;;;7.70;2.75;;;;;;;13.64;60.02;101033.00;4197349;28;20036;-71
2023/01/01 09:01:21;;;;;;;7.13;3.35;;;;;;;13.65;60.42;101035.63;4179513;28;20400;-71
2023/01/01 09:03:25;;;;;;;7.63;2.42;;;;;;;13.65;59.78;101042.59;4195249;28;20055;-71
2023/01/01 09:05:28;;;;;;;8.40;2.40;;;;;;;13.61;59.92;101042.56;4179415;28;20045;-71
2023/01/01 09:07:31;;;;;;;6.25;3.28;;;;;;;13.71;59.17;101047.88;4196530;28;20528;-71
2023/01/01 09:09:34;;;;;;;12.20;2.70;;;;;;;13.77;59.93;101050.59;4197100;28;20486;-71
2023/01/01 09:11:36;;;;;;;7.93;2.72;;;;;;;13.71;59.83;101054.00;4197042;28;20049;-72
2023/01/01 09:13:39;;;;;;;6.40;2.80;;;;;;;13.73;59.71;101059.25;4195082;28;20054;-71
2023/01/01 09:15:44;;;;;;;5.97;2.58;;;;;;;13.68;59.13;101059.22;4195903;28;20568;-72
2023/01/01 09:17:46;;;;;;;5.50;2.97;;;;;;;13.70;59.44;101057.47;4195789;28;20068;-72
2023/01/01 09:19:49;;;;;;;5.82;2.45;;;;;;;13.72;59.52;101070.56;4197117;28;20036;-71
2023/01/01 09:21:53;;;;;;;7.93;3.03;;;;;;;13.73;58.91;101067.09;4195810;28;20048;-72
2023/01/01 09:23:56;;;;;;;6.53;2.28;;;;;;;13.77;59.54;101066.28;4196182;28;20441;-71
2023/01/01 09:26:02;;;;;;;8.95;3.25;;;;;;;13.85;59.06;101069.81;4195761;28;20098;-72
2023/01/01 09:28:07;;;;;;;8.45;2.88;;;;;;;13.85;59.13;101064.59;4197142;28;20045;-71
2023/01/01 09:30:12;;;;;;;11.98;3.00;;;;;;;13.93;59.44;101075.13;4197035;28;20541;-72
2023/01/01 09:32:17;;;;;;;7.28;2.65;;;;;;;13.95;59.28;101074.28;4179082;28;20497;-72
2023/01/01 09:34:20;;;;;;;7.15;2.50;;;;;;;13.99;59.10;101079.53;4196127;28;20043;-71
2023/01/01 09:36:32;;;;;;;5.55;2.75;;;;;;;14.05;59.67;101077.00;4196960;28;20150;-72
2023/01/01 09:38:34;;;;;;;8.45;2.95;;;;;;;14.08;59.61;101080.50;4197028;28;20098;-73
2023/01/01 09:40:51;;;;;;;11.60;3.13;;;;;;;14.17;59.51;101084.09;4196976;28;20517;-73
2023/01/01 09:43:05;;;;;;;7.97;2.10;;;;;;;14.18;59.39;101089.34;4196868;28;20041;-73
2023/01/01 09:45:23;;;;;;;5.30;2.40;;;;;;;14.17;58.30;101090.19;4195279;28;20543;-73
2023/01/01 09:47:31;;;;;;;6.35;2.13;;;;;;;14.26;58.37;101092.00;4196874;28;20048;-73